Time;durP1;ratioP1;P1;durP2;ratioP2;P2;SDS_P1;SDS_P2;PMS_P1;PMS_P2;Temp;Humidity;BMP_temperature;BMP_pressure;BME280_temperature;BME280_humidity;BME280_pressure;Samples;Min_cycle;Max_cycle;Signal;HPM_P1;HPM_P2
2022/05/14 00:02:02;;;;;;;;;;;;;;;;;;5079888;28;19916;-76
2022/05/14 00:04:48;;;;;;;;;;;;;;;;;;5085009;28;19918;-76
2022/05/14 00:07:35;;;;;;;;;;;;;;;;;;5084746;28;19919;-76
2022/05/14 00:10:22;;;;;;;;;;;;;;;;;;5088128;28;21428;-76
2022/05/14 00:13:08;;;;;;;;;;;;;;;;;;5089406;28;19929;-76
2022/05/14 00:15:55;;;;;;;;;;;;;;;;;;5102619;28;20260;-75
2022/05/14 00:18:41;;;;;;;;;;;;;;;;;;5089066;28;19908;-77
2022/05/14 00:21:28;;;;;;;;;;;;;;;;;;5089025;28;19908;-77
2022/05/14 00:24:15;;;;;;;;;;;;;;;;;;5091540;28;19908;-77
2022/05/14 00:27:01;;;;;;;;;;;;;;;;;;5070385;28;19955;-75
2022/05/14 00:29:48;;;;;;;;;;;;;;;;;;5082133;28;19922;-77
2022/05/14 00:32:37;;;;;;;;;;;;;;;;;;5069499;28;19919;-76
2022/05/14 00:35:24;;;;;;;;;;;;;;;;;;5068902;28;19917;-76
2022/05/14 00:38:11;;;;;;;;;;;;;;;;;;5095876;28;20295;-76
2022/05/14 00:40:57;;;;;;;;;;;;;;;;;;5068582;28;19912;-76
2022/05/14 00:43:44;;;;;;;;;;;;;;;;;;5069494;28;19923;-77
2022/05/14 00:46:30;;;;;;;;;;;;;;;;;;5061073;28;19909;-75
2022/05/14 00:49:17;;;;;;;;;;;;;;;;;;5069678;28;19914;-75
2022/05/14 00:52:03;;;;;;;;;;;;;;;;;;5067812;28;19912;-76
2022/05/14 00:54:50;;;;;;;;;;;;;;;;;;5055935;28;19908;-75
2022/05/14 00:57:36;;;;;;;;;;;;;;;;;;5067861;28;19920;-76
2022/05/14 01:00:23;;;;;;;;;;;;;;;;;;5067964;28;19916;-76
2022/05/14 01:03:09;;;;;;;;;;;;;;;;;;5068294;28;19916;-76
2022/05/14 01:05:56;;;;;;;;;;;;;;;;;;5060860;28;20361;-76
2022/05/14 01:08:43;;;;;;;;;;;;;;;;;;5063973;28;19916;-76
2022/05/14 01:11:29;;;;;;;;;;;;;;;;;;5067849;28;20380;-77
2022/05/14 01:14:16;;;;;;;;;;;;;;;;;;5067544;28;19912;-77
2022/05/14 01:17:02;;;;;;;;;;;;;;;;;;5064924;28;20288;-76
2022/05/14 01:19:49;;;;;;;;;;;;;;;;;;5067715;28;19912;-76
2022/05/14 01:22:35;;;;;;;;;;;;;;;;;;5066472;28;19986;-75
2022/05/14 01:28:26;;;;;;;;;;;;;;;;;;5086864;28;19927;-75
2022/05/14 01:31:13;;;;;;;;;;;;;;;;;;5078257;28;20276;-76
2022/05/14 01:33:59;;;;;;;;;;;;;;;;;;5088436;28;19923;-76
2022/05/14 01:36:46;;;;;;;;;;;;;;;;;;5086448;28;19908;-76
2022/05/14 01:39:32;;;;;;;;;;;;;;;;;;5088550;28;19912;-76
2022/05/14 01:42:19;;;;;;;;;;;;;;;;;;5095420;28;20439;-76
2022/05/14 01:45:05;;;;;;;;;;;;;;;;;;5102368;28;19909;-78
2022/05/14 01:47:52;;;;;;;;;;;;;;;;;;5086826;28;19914;-78
2022/05/14 01:50:38;;;;;;;;;;;;;;;;;;5085855;28;19920;-77
2022/05/14 01:53:25;;;;;;;;;;;;;;;;;;5086799;28;20001;-77
2022/05/14 01:56:11;;;;;;;;;;;;;;;;;;5088023;28;19930;-77
2022/05/14 01:58:58;;;;;;;;;;;;;;;;;;5089650;28;19919;-77
2022/05/14 02:01:44;;;;;;;;;;;;;;;;;;5083292;28;20182;-77
2022/05/14 02:04:31;;;;;;;;;;;;;;;;;;5088947;28;19912;-77
2022/05/14 02:07:18;;;;;;;;;;;;;;;;;;5087073;28;19963;-77
2022/05/14 02:10:04;;;;;;;;;;;;;;;;;;5080287;28;19920;-77
2022/05/14 02:12:51;;;;;;;;;;;;;;;;;;5088473;28;19910;-77
2022/05/14 02:15:37;;;;;;;;;;;;;;;;;;5088664;28;19915;-77
2022/05/14 02:18:24;;;;;;;;;;;;;;;;;;5087642;28;20405;-77
2022/05/14 02:21:10;;;;;;;;;;;;;;;;;;5088572;28;19908;-76
2022/05/14 02:23:59;;;;;;;;;;;;;;;;;;5094348;28;19913;-75
2022/05/14 02:26:45;;;;;;;;;;;;;;;;;;5090599;28;19936;-78
2022/05/14 02:29:50;;;;;;;;;;;;;;;;;;5093169;28;20383;-77
2022/05/14 02:32:38;;;;;;;;;;;;;;;;;;5082833;28;19919;-77
2022/05/14 02:35:24;;;;;;;;;;;;;;;;;;5088696;28;20279;-77
2022/05/14 02:38:11;;;;;;;;;;;;;;;;;;5090845;28;20389;-76
2022/05/14 02:40:57;;;;;;;;;;;;;;;;;;5089212;28;19920;-77
2022/05/14 02:43:44;;;;;;;;;;;;;;;;;;5082587;28;19977;-77
2022/05/14 02:46:30;;;;;;;;;;;;;;;;;;5091561;28;19914;-76
2022/05/14 02:49:17;;;;;;;;;;;;;;;;;;5078566;28;20371;-76
2022/05/14 02:52:03;;;;;;;;;;;;;;;;;;5091259;28;19923;-76
2022/05/14 02:54:50;;;;;;;;;;;;;;;;;;5091079;28;19912;-77
2022/05/14 02:57:36;;;;;;;;;;;;;;;;;;5091218;28;19915;-77
2022/05/14 03:00:22;;;;;;;;;;;;;;;;;;5090703;28;19934;-77
2022/05/14 03:03:09;;;;;;;;;;;;;;;;;;5092736;28;19920;-77
2022/05/14 03:05:55;;;;;;;;;;;;;;;;;;5095539;28;20600;-77
2022/05/14 03:08:42;;;;;;;;;;;;;;;;;;5082625;28;19908;-77
2022/05/14 03:11:29;;;;;;;;;;;;;;;;;;5084497;28;20379;-77
2022/05/14 03:14:15;;;;;;;;;;;;;;;;;;5090576;28;19931;-76
2022/05/14 03:17:02;;;;;;;;;;;;;;;;;;5089851;28;19918;-77
2022/05/14 03:19:49;;;;;;;;;;;;;;;;;;5117506;27;20287;-76
2022/05/14 03:22:36;;;;;;;;;;;;;;;;;;5096109;28;19908;-76
2022/05/14 03:25:22;;;;;;;;;;;;;;;;;;5090821;28;19912;-76
2022/05/14 03:28:10;;;;;;;;;;;;;;;;;;5090452;28;20299;-76
2022/05/14 03:30:57;;;;;;;;;;;;;;;;;;5091680;28;19916;-77
2022/05/14 03:33:44;;;;;;;;;;;;;;;;;;5081116;28;19912;-76
2022/05/14 03:36:30;;;;;;;;;;;;;;;;;;5086009;28;19916;-76
2022/05/14 03:39:17;;;;;;;;;;;;;;;;;;5089225;28;19912;-76
2022/05/14 03:42:03;;;;;;;;;;;;;;;;;;5091599;28;19916;-75
2022/05/14 03:44:50;;;;;;;;;;;;;;;;;;5091716;28;19909;-75
2022/05/14 03:47:36;;;;;;;;;;;;;;;;;;5083199;28;19909;-76
2022/05/14 03:50:23;;;;;;;;;;;;;;;;;;5094092;27;19920;-77
2022/05/14 03:53:09;;;;;;;;;;;;;;;;;;5088464;28;19912;-74
2022/05/14 03:55:56;;;;;;;;;;;;;;;;;;5115718;27;19914;-77
2022/05/14 03:58:42;;;;;;;;;;;;;;;;;;5087360;28;19913;-75
2022/05/14 04:01:29;;;;;;;;;;;;;;;;;;5085074;28;19913;-75
2022/05/14 04:04:16;;;;;;;;;;;;;;;;;;5087281;28;19912;-75
2022/05/14 04:07:02;;;;;;;;;;;;;;;;;;5083479;28;19931;-75
2022/05/14 04:09:48;;;;;;;;;;;;;;;;;;5084818;28;19923;-76
2022/05/14 04:12:35;;;;;;;;;;;;;;;;;;5085192;28;19950;-76
2022/05/14 04:15:23;;;;;;;;;;;;;;;;;;5082783;28;20257;-76
2022/05/14 04:18:10;;;;;;;;;;;;;;;;;;5086426;28;19916;-76
2022/05/14 04:20:56;;;;;;;;;;;;;;;;;;5085973;28;19919;-76
2022/05/14 04:23:43;;;;;;;;;;;;;;;;;;5081723;28;19920;-77
2022/05/14 04:26:29;;;;;;;;;;;;;;;;;;5088357;28;19924;-76
2022/05/14 04:29:16;;;;;;;;;;;;;;;;;;5089921;28;19965;-77
2022/05/14 04:32:02;;;;;;;;;;;;;;;;;;5086137;28;19916;-77
2022/05/14 04:34:49;;;;;;;;;;;;;;;;;;5093468;28;19918;-77
2022/05/14 04:37:36;;;;;;;;;;;;;;;;;;5089789;28;20513;-77
2022/05/14 04:40:22;;;;;;;;;;;;;;;;;;5078917;28;20361;-77
2022/05/14 04:43:09;;;;;;;;;;;;;;;;;;5087322;28;19927;-77
2022/05/14 04:45:55;;;;;;;;;;;;;;;;;;5079725;28;19915;-77
2022/05/14 04:48:42;;;;;;;;;;;;;;;;;;5088606;28;20286;-77
2022/05/14 04:51:28;;;;;;;;;;;;;;;;;;5097410;28;19916;-76
2022/05/14 04:54:15;;;;;;;;;;;;;;;;;;5088155;28;19919;-76
2022/05/14 04:57:01;;;;;;;;;;;;;;;;;;5086026;28;20540;-76
2022/05/14 04:59:48;;;;;;;;;;;;;;;;;;5082140;28;19908;-76
2022/05/14 05:05:40;;;;;;;;;;;;;;;;;;5079563;28;19916;-77
2022/05/14 05:08:27;;;;;;;;;;;;;;;;;;5101205;28;19912;-76
2022/05/14 05:11:14;;;;;;;;;;;;;;;;;;5084702;28;19943;-76
2022/05/14 05:14:00;;;;;;;;;;;;;;;;;;5089362;28;20310;-77
2022/05/14 05:16:47;;;;;;;;;;;;;;;;;;5088956;28;19919;-77
2022/05/14 05:19:33;;;;;;;;;;;;;;;;;;5085791;28;19916;-76
2022/05/14 05:22:20;;;;;;;;;;;;;;;;;;5088120;28;19908;-76
2022/05/14 05:25:06;;;;;;;;;;;;;;;;;;5088522;28;20279;-77
2022/05/14 05:27:52;;;;;;;;;;;;;;;;;;5089630;28;19924;-77
2022/05/14 05:30:39;;;;;;;;;;;;;;;;;;5089278;28;19943;-77
2022/05/14 05:33:25;;;;;;;;;;;;;;;;;;5086642;28;19908;-77
2022/05/14 05:36:12;;;;;;;;;;;;;;;;;;5087290;28;19908;-77
2022/05/14 05:38:58;;;;;;;;;;;;;;;;;;5088685;28;20016;-77
2022/05/14 05:41:45;;;;;;;;;;;;;;;;;;5098052;28;20367;-76
2022/05/14 05:44:31;;;;;;;;;;;;;;;;;;5057135;28;19908;-76
2022/05/14 05:47:18;;;;;;;;;;;;;;;;;;5085577;28;19917;-76
2022/05/14 05:50:04;;;;;;;;;;;;;;;;;;5080800;28;20303;-77
2022/05/14 05:52:52;;;;;;;;;;;;;;;;;;5086848;28;19912;-77
2022/05/14 05:58:43;;;;;;;;;;;;;;;;;;5088268;28;19919;-77
2022/05/14 06:01:30;;;;;;;;;;;;;;;;;;5090572;28;20391;-78
2022/05/14 06:04:16;;;;;;;;;;;;;;;;;;5093559;28;19916;-77
2022/05/14 06:07:03;;;;;;;;;;;;;;;;;;5091394;28;19908;-77
2022/05/14 06:09:49;;;;;;;;;;;;;;;;;;5101841;28;19916;-75
2022/05/14 06:12:38;;;;;;;;;;;;;;;;;;5091930;28;19939;-77
2022/05/14 06:15:24;;;;;;;;;;;;;;;;;;5082497;28;19912;-76
2022/05/14 06:18:11;;;;;;;;;;;;;;;;;;5087752;28;19915;-76
2022/05/14 06:20:58;;;;;;;;;;;;;;;;;;5092572;28;19916;-76
2022/05/14 06:23:44;;;;;;;;;;;;;;;;;;5090786;28;19923;-76
2022/05/14 06:26:31;;;;;;;;;;;;;;;;;;5091429;28;20295;-76
2022/05/14 06:29:17;;;;;;;;;;;;;;;;;;5092305;28;19915;-77
2022/05/14 06:32:04;;;;;;;;;;;;;;;;;;5104963;28;21196;-77
2022/05/14 06:34:50;;;;;;;;;;;;;;;;;;5092544;28;19914;-76
2022/05/14 06:37:37;;;;;;;;;;;;;;;;;;5091464;28;19908;-77
2022/05/14 06:40:26;;;;;;;;;;;;;;;;;;5092498;28;20438;-77
2022/05/14 06:43:15;;;;;;;;;;;;;;;;;;5091014;28;19908;-77
2022/05/14 06:46:04;;;;;;;;;;;;;;;;;;5081239;28;19908;-77
2022/05/14 06:48:51;;;;;;;;;;;;;;;;;;5072542;28;19908;-77
2022/05/14 06:51:38;;;;;;;;;;;;;;;;;;5088721;28;19920;-77
2022/05/14 06:54:24;;;;;;;;;;;;;;;;;;5091045;28;20394;-77
2022/05/14 06:57:10;;;;;;;;;;;;;;;;;;5090829;28;19914;-77
2022/05/14 06:59:57;;;;;;;;;;;;;;;;;;5104343;28;19912;-77
2022/05/14 07:02:44;;;;;;;;;;;;;;;;;;5091233;28;19916;-77
2022/05/14 07:08:35;;;;;;;;;;;;;;;;;;5082635;28;19908;-76
2022/05/14 07:11:22;;;;;;;;;;;;;;;;;;5090043;28;19916;-77
2022/05/14 07:14:16;;;;;;;;;;;;;;;;;;5087369;28;19916;-76
2022/05/14 07:17:03;;;;;;;;;;;;;;;;;;5087030;28;19915;-78
2022/05/14 07:19:49;;;;;;;;;;;;;;;;;;5090696;28;19912;-77
2022/05/14 07:22:36;;;;;;;;;;;;;;;;;;5095106;28;19916;-77
2022/05/14 07:25:22;;;;;;;;;;;;;;;;;;5087519;28;19912;-77
2022/05/14 07:28:09;;;;;;;;;;;;;;;;;;5085082;28;19947;-77
2022/05/14 07:30:55;;;;;;;;;;;;;;;;;;5087113;28;19930;-78
2022/05/14 07:33:42;;;;;;;;;;;;;;;;;;5085270;28;19919;-78
2022/05/14 07:36:28;;;;;;;;;;;;;;;;;;5100470;28;20295;-78
2022/05/14 07:39:15;;;;;;;;;;;;;;;;;;5089261;28;19920;-77
2022/05/14 07:42:01;;;;;;;;;;;;;;;;;;5086201;28;19908;-77
2022/05/14 07:44:48;;;;;;;;;;;;;;;;;;5089125;28;20501;-77
2022/05/14 07:47:35;;;;;;;;;;;;;;;;;;5087058;28;19916;-77
2022/05/14 07:50:22;;;;;;;;;;;;;;;;;;5088003;28;19920;-78
2022/05/14 07:53:08;;;;;;;;;;;;;;;;;;5085201;28;19915;-78
2022/05/14 07:55:54;;;;;;;;;;;;;;;;;;5087816;28;20296;-78
2022/05/14 07:58:43;;;;;;;;;;;;;;;;;;5089894;28;19915;-77
2022/05/14 08:01:29;;;;;;;;;;;;;;;;;;5084936;28;19918;-76
2022/05/14 08:04:16;;;;;;;;;;;;;;;;;;5088860;28;19927;-77
2022/05/14 08:07:02;;;;;;;;;;;;;;;;;;5085461;28;19912;-78
2022/05/14 08:09:49;;;;;;;;;;;;;;;;;;5088599;28;19912;-77
2022/05/14 08:12:35;;;;;;;;;;;;;;;;;;5088611;28;20283;-77
2022/05/14 08:15:22;;;;;;;;;;;;;;;;;;5086393;28;19919;-77
2022/05/14 08:18:08;;;;;;;;;;;;;;;;;;5081368;28;20320;-77
2022/05/14 08:20:55;;;;;;;;;;;;;;;;;;5088083;28;19916;-77
2022/05/14 08:26:46;;;;;;;;;;;;;;;;;;5083781;28;20555;-78
2022/05/14 08:29:33;;;;;;;;;;;;;;;;;;5090002;28;19927;-78
2022/05/14 08:32:21;;;;;;;;;;;;;;;;;;5104122;27;19920;-78
2022/05/14 08:35:08;;;;;;;;;;;;;;;;;;5099156;28;19912;-76
2022/05/14 08:37:54;;;;;;;;;;;;;;;;;;5083930;28;19923;-77
2022/05/14 08:40:41;;;;;;;;;;;;;;;;;;5088362;28;19908;-78
2022/05/14 08:43:27;;;;;;;;;;;;;;;;;;5089606;28;19912;-78
2022/05/14 08:46:14;;;;;;;;;;;;;;;;;;5083959;28;19919;-77
2022/05/14 08:49:00;;;;;;;;;;;;;;;;;;5082467;28;19939;-78
2022/05/14 08:51:46;;;;;;;;;;;;;;;;;;5085769;28;19916;-78
2022/05/14 08:54:33;;;;;;;;;;;;;;;;;;5085727;28;19935;-78
2022/05/14 08:57:19;;;;;;;;;;;;;;;;;;5075235;28;19940;-76
2022/05/14 09:00:06;;;;;;;;;;;;;;;;;;5081342;28;19919;-77
2022/05/14 09:02:52;;;;;;;;;;;;;;;;;;5084480;28;19912;-78
2022/05/14 09:05:39;;;;;;;;;;;;;;;;;;5084459;28;20027;-77
2022/05/14 09:08:25;;;;;;;;;;;;;;;;;;5089217;28;19932;-78
2022/05/14 09:11:13;;;;;;;;;;;;;;;;;;5084361;28;19920;-77
2022/05/14 09:13:59;;;;;;;;;;;;;;;;;;5083744;28;19935;-78
2022/05/14 09:16:46;;;;;;;;;;;;;;;;;;5079688;28;20575;-78
2022/05/14 09:19:32;;;;;;;;;;;;;;;;;;5098911;28;20120;-78
2022/05/14 09:22:19;;;;;;;;;;;;;;;;;;5079341;28;19912;-78
2022/05/14 09:25:05;;;;;;;;;;;;;;;;;;5081777;28;19912;-79
2022/05/14 09:27:52;;;;;;;;;;;;;;;;;;5081928;28;20292;-79
2022/05/14 09:30:39;;;;;;;;;;;;;;;;;;5080662;28;20425;-78
2022/05/14 09:33:27;;;;;;;;;;;;;;;;;;5093393;28;19908;-79
2022/05/14 09:36:13;;;;;;;;;;;;;;;;;;5085702;28;19949;-78
2022/05/14 09:39:00;;;;;;;;;;;;;;;;;;5067896;28;19912;-77
2022/05/14 09:41:47;;;;;;;;;;;;;;;;;;5071903;28;19913;-80
2022/05/14 09:44:36;;;;;;;;;;;;;;;;;;5084830;28;20712;-80
2022/05/14 09:47:23;;;;;;;;;;;;;;;;;;5091944;28;20261;-81
2022/05/14 09:50:09;;;;;;;;;;;;;;;;;;5089715;28;19913;-82
2022/05/14 09:52:56;;;;;;;;;;;;;;;;;;5095558;28;19919;-82
2022/05/14 09:55:42;;;;;;;;;;;;;;;;;;5076589;28;19916;-82
2022/05/14 09:58:29;;;;;;;;;;;;;;;;;;5090049;28;19919;-82
2022/05/14 10:01:17;;;;;;;;;;;;;;;;;;5093538;28;19923;-79
2022/05/14 10:04:03;;;;;;;;;;;;;;;;;;5088416;28;19912;-79
2022/05/14 10:06:50;;;;;;;;;;;;;;;;;;5101571;28;19912;-81
2022/05/14 10:09:36;;;;;;;;;;;;;;;;;;5085776;28;20279;-80
2022/05/14 10:12:23;;;;;;;;;;;;;;;;;;5087691;28;19920;-81
2022/05/14 10:15:09;;;;;;;;;;;;;;;;;;5100717;28;20363;-79
2022/05/14 10:17:56;;;;;;;;;;;;;;;;;;5099765;28;19924;-80
2022/05/14 10:20:42;;;;;;;;;;;;;;;;;;5084758;28;19934;-80
2022/05/14 10:26:46;;;;;;;;;;;;;;;;;;5079734;28;19931;-81
2022/05/14 10:29:33;;;;;;;;;;;;;;;;;;5073554;28;19915;-81
2022/05/14 10:32:19;;;;;;;;;;;;;;;;;;5089360;28;19952;-81
2022/05/14 10:35:06;;;;;;;;;;;;;;;;;;5093764;28;19923;-81
2022/05/14 10:37:52;;;;;;;;;;;;;;;;;;5085529;28;19916;-81
2022/05/14 10:40:39;;;;;;;;;;;;;;;;;;5087337;28;19908;-81
2022/05/14 10:43:25;;;;;;;;;;;;;;;;;;5091498;28;19923;-81
2022/05/14 10:46:12;;;;;;;;;;;;;;;;;;5081464;28;19909;-82
2022/05/14 10:48:58;;;;;;;;;;;;;;;;;;5084743;28;20406;-81
2022/05/14 10:51:45;;;;;;;;;;;;;;;;;;5086369;28;19927;-81
2022/05/14 10:54:31;;;;;;;;;;;;;;;;;;5103235;28;19908;-81
2022/05/14 10:57:17;;;;;;;;;;;;;;;;;;5080219;28;19913;-81
2022/05/14 11:00:07;;;;;;;;;;;;;;;;;;5087719;28;20380;-81
2022/05/14 11:02:53;;;;;;;;;;;;;;;;;;5083029;28;20379;-79
2022/05/14 11:05:40;;;;;;;;;;;;;;;;;;5089625;28;20446;-79
2022/05/14 11:08:26;;;;;;;;;;;;;;;;;;5090257;28;19912;-79
2022/05/14 11:11:13;;;;;;;;;;;;;;;;;;5079904;28;19942;-78
2022/05/14 11:13:59;;;;;;;;;;;;;;;;;;5090522;28;19916;-80
2022/05/14 11:16:46;;;;;;;;;;;;;;;;;;5078273;28;19919;-81
2022/05/14 11:19:32;;;;;;;;;;;;;;;;;;5085359;28;19919;-78
2022/05/14 11:22:19;;;;;;;;;;;;;;;;;;5090147;28;19916;-79
2022/05/14 11:25:05;;;;;;;;;;;;;;;;;;5090497;28;19920;-80
2022/05/14 11:27:52;;;;;;;;;;;;;;;;;;5090810;28;19920;-82
2022/05/14 11:30:38;;;;;;;;;;;;;;;;;;5092599;28;19928;-78
2022/05/14 11:33:25;;;;;;;;;;;;;;;;;;5090276;28;19992;-81
2022/05/14 11:36:11;;;;;;;;;;;;;;;;;;5084393;28;20306;-85
2022/05/14 11:38:58;;;;;;;;;;;;;;;;;;5063826;28;19916;-80
2022/05/14 11:41:44;;;;;;;;;;;;;;;;;;5089263;28;20281;-84
2022/05/14 11:44:31;;;;;;;;;;;;;;;;;;5086346;28;19927;-81
2022/05/14 11:47:18;;;;;;;;;;;;;;;;;;5089509;28;19935;-79
2022/05/14 11:50:04;;;;;;;;;;;;;;;;;;5083437;28;20668;-79
2022/05/14 11:52:51;;;;;;;;;;;;;;;;;;5086076;28;19931;-79
2022/05/14 11:55:37;;;;;;;;;;;;;;;;;;5091689;28;19909;-77
2022/05/14 11:58:24;;;;;;;;;;;;;;;;;;5089089;28;20272;-78
2022/05/14 12:01:10;;;;;;;;;;;;;;;;;;5082256;28;19913;-78
2022/05/14 12:03:59;;;;;;;;;;;;;;;;;;5080519;28;19915;-77
2022/05/14 12:06:46;;;;;;;;;;;;;;;;;;5088279;28;19934;-78
2022/05/14 12:09:32;;;;;;;;;;;;;;;;;;5089037;28;20371;-77
2022/05/14 12:12:19;;;;;;;;;;;;;;;;;;5088750;28;19930;-77
2022/05/14 12:15:05;;;;;;;;;;;;;;;;;;5084755;28;19934;-76
2022/05/14 12:17:52;;;;;;;;;;;;;;;;;;5087430;28;19916;-77
2022/05/14 12:20:38;;;;;;;;;;;;;;;;;;5088363;28;20335;-77
2022/05/14 12:23:25;;;;;;;;;;;;;;;;;;5079585;28;19919;-77
2022/05/14 12:26:11;;;;;;;;;;;;;;;;;;5087994;28;20410;-78
2022/05/14 12:28:58;;;;;;;;;;;;;;;;;;5093179;28;19927;-79
2022/05/14 12:34:50;;;;;;;;;;;;;;;;;;5089314;28;19912;-79
2022/05/14 12:37:36;;;;;;;;;;;;;;;;;;5081468;28;20562;-78
2022/05/14 12:40:23;;;;;;;;;;;;;;;;;;5103441;28;19912;-79
2022/05/14 12:43:09;;;;;;;;;;;;;;;;;;5085917;28;19919;-79
2022/05/14 12:45:56;;;;;;;;;;;;;;;;;;5089496;28;19926;-78
2022/05/14 12:48:42;;;;;;;;;;;;;;;;;;5083405;28;19927;-78
2022/05/14 12:51:28;;;;;;;;;;;;;;;;;;5085225;28;19916;-78
2022/05/14 12:54:15;;;;;;;;;;;;;;;;;;5086058;28;19909;-77
2022/05/14 12:57:01;;;;;;;;;;;;;;;;;;5097744;28;19915;-78
2022/05/14 12:59:48;;;;;;;;;;;;;;;;;;5092336;28;20355;-78
2022/05/14 13:02:34;;;;;;;;;;;;;;;;;;5089967;28;19938;-78
2022/05/14 13:05:21;;;;;;;;;;;;;;;;;;5083519;28;19908;-78
2022/05/14 13:08:07;;;;;;;;;;;;;;;;;;5082503;28;19919;-78
2022/05/14 13:10:54;;;;;;;;;;;;;;;;;;5101209;28;20491;-78
2022/05/14 13:13:40;;;;;;;;;;;;;;;;;;5084806;28;19942;-77
2022/05/14 13:16:27;;;;;;;;;;;;;;;;;;5086815;28;20275;-78
2022/05/14 13:19:13;;;;;;;;;;;;;;;;;;5087702;28;19908;-79
2022/05/14 13:22:00;;;;;;;;;;;;;;;;;;5087324;28;19912;-78
2022/05/14 13:24:46;;;;;;;;;;;;;;;;;;5088386;28;19919;-77
2022/05/14 13:27:33;;;;;;;;;;;;;;;;;;5088683;28;20307;-79
2022/05/14 13:30:21;;;;;;;;;;;;;;;;;;5087916;28;20290;-76
2022/05/14 13:33:08;;;;;;;;;;;;;;;;;;5088556;28;19934;-78
2022/05/14 13:39:00;;;;;;;;;;;;;;;;;;5089644;28;20461;-77
2022/05/14 13:41:46;;;;;;;;;;;;;;;;;;5090060;28;19919;-77
2022/05/14 13:44:34;;;;;;;;;;;;;;;;;;5088177;28;20323;-76
2022/05/14 13:47:20;;;;;;;;;;;;;;;;;;5090183;28;19908;-77
2022/05/14 13:50:07;;;;;;;;;;;;;;;;;;5086830;28;19912;-76
2022/05/14 13:52:53;;;;;;;;;;;;;;;;;;5095664;28;19915;-75
2022/05/14 13:55:39;;;;;;;;;;;;;;;;;;5091362;28;19919;-76
2022/05/14 13:58:26;;;;;;;;;;;;;;;;;;5080748;28;19923;-77
2022/05/14 14:01:12;;;;;;;;;;;;;;;;;;5094227;28;19908;-78
2022/05/14 14:03:59;;;;;;;;;;;;;;;;;;5092736;28;20006;-78
2022/05/14 14:06:46;;;;;;;;;;;;;;;;;;5080897;28;19920;-77
2022/05/14 14:09:32;;;;;;;;;;;;;;;;;;5084491;28;19919;-77
2022/05/14 14:12:23;;;;;;;;;;;;;;;;;;5080544;28;20011;-78
2022/05/14 14:15:10;;;;;;;;;;;;;;;;;;5087322;28;19923;-78
2022/05/14 14:17:56;;;;;;;;;;;;;;;;;;5080224;28;19951;-78
2022/05/14 14:20:44;;;;;;;;;;;;;;;;;;5091410;28;20394;-79
2022/05/14 14:23:31;;;;;;;;;;;;;;;;;;5091370;28;20429;-78
2022/05/14 14:26:18;;;;;;;;;;;;;;;;;;5091299;28;19920;-78
2022/05/14 14:29:04;;;;;;;;;;;;;;;;;;5083117;28;19920;-79
2022/05/14 14:31:51;;;;;;;;;;;;;;;;;;5079381;28;19943;-78
2022/05/14 14:34:38;;;;;;;;;;;;;;;;;;5082162;28;19912;-76
2022/05/14 14:37:24;;;;;;;;;;;;;;;;;;5090875;28;19916;-76
2022/05/14 14:40:11;;;;;;;;;;;;;;;;;;5090563;28;19908;-77
2022/05/14 14:42:57;;;;;;;;;;;;;;;;;;5079882;28;19922;-76
2022/05/14 14:45:44;;;;;;;;;;;;;;;;;;5101165;28;19919;-76
2022/05/14 14:48:33;;;;;;;;;;;;;;;;;;5107970;28;19918;-75
2022/05/14 14:51:19;;;;;;;;;;;;;;;;;;5105555;27;19930;-78
2022/05/14 14:54:06;;;;;;;;;;;;;;;;;;5104153;28;19934;-77
2022/05/14 14:56:52;;;;;;;;;;;;;;;;;;5092429;28;19915;-75
2022/05/14 14:59:39;;;;;;;;;;;;;;;;;;5091987;28;20656;-76
2022/05/14 15:02:25;;;;;;;;;;;;;;;;;;5091802;28;19915;-75
2022/05/14 15:05:12;;;;;;;;;;;;;;;;;;5102582;28;19908;-76
2022/05/14 15:07:58;;;;;;;;;;;;;;;;;;5090398;28;20291;-76
2022/05/14 15:10:45;;;;;;;;;;;;;;;;;;5096131;28;19919;-76
2022/05/14 15:13:31;;;;;;;;;;;;;;;;;;5096111;28;19913;-77
2022/05/14 15:16:18;;;;;;;;;;;;;;;;;;5087996;28;20291;-76
2022/05/14 15:19:05;;;;;;;;;;;;;;;;;;5086023;28;19912;-75
2022/05/14 15:21:51;;;;;;;;;;;;;;;;;;5091045;28;19920;-76
2022/05/14 15:24:37;;;;;;;;;;;;;;;;;;5090441;28;19908;-76
2022/05/14 15:27:24;;;;;;;;;;;;;;;;;;5080582;28;20334;-75
2022/05/14 15:30:10;;;;;;;;;;;;;;;;;;5077954;28;19919;-80
2022/05/14 15:32:57;;;;;;;;;;;;;;;;;;5093315;28;19936;-79
2022/05/14 15:35:43;;;;;;;;;;;;;;;;;;5085457;28;19935;-78
2022/05/14 15:38:30;;;;;;;;;;;;;;;;;;5092596;28;20001;-78
2022/05/14 15:41:16;;;;;;;;;;;;;;;;;;5090816;28;20291;-76
2022/05/14 15:44:03;;;;;;;;;;;;;;;;;;5088638;28;19920;-79
2022/05/14 15:46:49;;;;;;;;;;;;;;;;;;5086833;28;19916;-78
2022/05/14 15:49:36;;;;;;;;;;;;;;;;;;5086789;28;19909;-78
2022/05/14 15:52:22;;;;;;;;;;;;;;;;;;5086342;28;19920;-78
2022/05/14 15:55:09;;;;;;;;;;;;;;;;;;5085468;28;19908;-79
2022/05/14 15:57:56;;;;;;;;;;;;;;;;;;5086051;28;19920;-78
2022/05/14 16:00:42;;;;;;;;;;;;;;;;;;5083721;28;19912;-78
2022/05/14 16:03:29;;;;;;;;;;;;;;;;;;5088208;28;19920;-79
2022/05/14 16:06:15;;;;;;;;;;;;;;;;;;5092168;28;19912;-79
2022/05/14 16:09:02;;;;;;;;;;;;;;;;;;5087457;28;19912;-78
2022/05/14 16:17:58;;;;;;;;;;;;;;;;;;5082172;28;19916;-78
2022/05/14 16:20:45;;;;;;;;;;;;;;;;;;5084179;28;19912;-78
2022/05/14 16:23:31;;;;;;;;;;;;;;;;;;5081246;28;19912;-78
2022/05/14 16:26:18;;;;;;;;;;;;;;;;;;5088026;28;20371;-78
2022/05/14 16:29:06;;;;;;;;;;;;;;;;;;5083664;28;19931;-78
2022/05/14 16:31:52;;;;;;;;;;;;;;;;;;5084840;28;20017;-77
2022/05/14 16:34:39;;;;;;;;;;;;;;;;;;5079654;28;20382;-79
2022/05/14 16:37:25;;;;;;;;;;;;;;;;;;5086238;28;19915;-79
2022/05/14 16:40:11;;;;;;;;;;;;;;;;;;5080393;28;20411;-79
2022/05/14 16:42:58;;;;;;;;;;;;;;;;;;5076831;28;19917;-78
2022/05/14 16:45:45;;;;;;;;;;;;;;;;;;5084712;28;19920;-78
2022/05/14 16:48:31;;;;;;;;;;;;;;;;;;5077994;28;20290;-78
2022/05/14 16:51:18;;;;;;;;;;;;;;;;;;5078299;28;19928;-78
2022/05/14 16:54:06;;;;;;;;;;;;;;;;;;5079974;28;20349;-78
2022/05/14 16:56:52;;;;;;;;;;;;;;;;;;5084720;28;19919;-79
2022/05/14 16:59:39;;;;;;;;;;;;;;;;;;5075623;28;19913;-78
2022/05/14 17:02:25;;;;;;;;;;;;;;;;;;5078470;28;20419;-78
2022/05/14 17:05:12;;;;;;;;;;;;;;;;;;5080026;28;19920;-78
2022/05/14 17:07:58;;;;;;;;;;;;;;;;;;5079746;28;19923;-79
2022/05/14 17:10:45;;;;;;;;;;;;;;;;;;5068303;28;19922;-80
2022/05/14 17:13:34;;;;;;;;;;;;;;;;;;5085743;28;19931;-78
2022/05/14 17:16:20;;;;;;;;;;;;;;;;;;5080462;28;19912;-79
2022/05/14 17:19:07;;;;;;;;;;;;;;;;;;5085295;28;20402;-78
2022/05/14 17:21:53;;;;;;;;;;;;;;;;;;5082705;28;19912;-78
2022/05/14 17:24:40;;;;;;;;;;;;;;;;;;5082311;28;20374;-78
2022/05/14 17:27:26;;;;;;;;;;;;;;;;;;5078911;28;19947;-79
2022/05/14 17:30:13;;;;;;;;;;;;;;;;;;5081770;28;19920;-77
2022/05/14 17:32:59;;;;;;;;;;;;;;;;;;5080367;28;19946;-78
2022/05/14 17:35:46;;;;;;;;;;;;;;;;;;5086454;28;20569;-74
2022/05/14 17:41:37;;;;;;;;;;;;;;;;;;5084749;28;20244;-76
2022/05/14 17:44:24;;;;;;;;;;;;;;;;;;5087314;28;19939;-76
2022/05/14 17:47:11;;;;;;;;;;;;;;;;;;5084375;28;19919;-76
2022/05/14 17:49:57;;;;;;;;;;;;;;;;;;5083347;28;19920;-82
2022/05/14 17:52:44;;;;;;;;;;;;;;;;;;5080679;28;19920;-77
2022/05/14 17:55:31;;;;;;;;;;;;;;;;;;5086011;28;19935;-77
2022/05/14 17:58:17;;;;;;;;;;;;;;;;;;5081772;28;20402;-78
2022/05/14 18:01:04;;;;;;;;;;;;;;;;;;5086136;28;19913;-77
2022/05/14 18:03:54;;;;;;;;;;;;;;;;;;5084972;28;19908;-76
2022/05/14 18:06:40;;;;;;;;;;;;;;;;;;5089100;28;19908;-79
2022/05/14 18:09:27;;;;;;;;;;;;;;;;;;5088253;28;19919;-78
2022/05/14 18:12:13;;;;;;;;;;;;;;;;;;5088090;28;19927;-78
2022/05/14 18:15:00;;;;;;;;;;;;;;;;;;5091347;28;19923;-78
2022/05/14 18:17:46;;;;;;;;;;;;;;;;;;5090220;28;19930;-78
2022/05/14 18:20:33;;;;;;;;;;;;;;;;;;5089380;28;19915;-80
2022/05/14 18:23:19;;;;;;;;;;;;;;;;;;5089760;28;20287;-79
2022/05/14 18:26:06;;;;;;;;;;;;;;;;;;5089026;28;20562;-77
2022/05/14 18:28:52;;;;;;;;;;;;;;;;;;5090948;28;19924;-77
2022/05/14 18:31:39;;;;;;;;;;;;;;;;;;5094071;28;19923;-78
2022/05/14 18:34:26;;;;;;;;;;;;;;;;;;5091827;28;19913;-78
2022/05/14 18:37:12;;;;;;;;;;;;;;;;;;5090149;28;19919;-77
2022/05/14 18:40:00;;;;;;;;;;;;;;;;;;5091332;28;20394;-78
2022/05/14 18:42:46;;;;;;;;;;;;;;;;;;5093478;28;19915;-77
2022/05/14 18:45:32;;;;;;;;;;;;;;;;;;5090032;28;19912;-77
2022/05/14 18:48:20;;;;;;;;;;;;;;;;;;5084484;28;20382;-76
2022/05/14 18:51:07;;;;;;;;;;;;;;;;;;5090500;28;19919;-76
2022/05/14 18:53:53;;;;;;;;;;;;;;;;;;5102777;28;19923;-76
2022/05/14 18:56:39;;;;;;;;;;;;;;;;;;5090146;28;19938;-74
2022/05/14 18:59:26;;;;;;;;;;;;;;;;;;5090834;28;19912;-79
2022/05/14 19:02:12;;;;;;;;;;;;;;;;;;5089206;28;19915;-77
2022/05/14 19:08:04;;;;;;;;;;;;;;;;;;5090043;28;19954;-75
2022/05/14 19:10:50;;;;;;;;;;;;;;;;;;5078681;28;19916;-75
2022/05/14 19:13:37;;;;;;;;;;;;;;;;;;5082848;28;19922;-75
2022/05/14 19:16:24;;;;;;;;;;;;;;;;;;5090353;28;20284;-76
2022/05/14 19:19:11;;;;;;;;;;;;;;;;;;5099177;28;19908;-76
2022/05/14 19:21:57;;;;;;;;;;;;;;;;;;5105489;27;19919;-80
2022/05/14 19:24:44;;;;;;;;;;;;;;;;;;5097644;28;19916;-77
2022/05/14 19:27:31;;;;;;;;;;;;;;;;;;5081876;28;19920;-80
2022/05/14 19:30:17;;;;;;;;;;;;;;;;;;5094281;28;19916;-79
2022/05/14 19:33:04;;;;;;;;;;;;;;;;;;5077182;28;19920;-77
2022/05/14 19:35:50;;;;;;;;;;;;;;;;;;5097251;28;19935;-78